createdAt,value
2023-03-04T00:01:01.241Z,13.77
2023-03-04T00:03:29.835Z,13.93
2023-03-04T00:05:58.134Z,13.73
2023-03-04T00:08:27.866Z,13.80
2023-03-04T00:10:56.214Z,14.37
2023-03-04T00:13:25.203Z,14.87
2023-03-04T00:15:53.813Z,14.70
2023-03-04T00:18:22.256Z,13.97
2023-03-04T00:20:50.908Z,13.57
2023-03-04T00:23:19.461Z,12.67
2023-03-04T00:25:49.086Z,13.37
2023-03-04T00:28:17.469Z,14.43
2023-03-04T00:30:45.946Z,12.57
2023-03-04T00:33:14.323Z,13.93
2023-03-04T00:35:42.758Z,14.60
2023-03-04T00:38:11.516Z,14.00
2023-03-04T00:40:39.932Z,14.90
2023-03-04T00:43:09.692Z,14.27
2023-03-04T00:45:38.116Z,14.80
2023-03-04T00:48:06.702Z,13.53
2023-03-04T00:50:36.317Z,13.40
2023-03-04T00:53:04.816Z,16.47
2023-03-04T00:55:33.295Z,13.07
2023-03-04T00:58:01.717Z,14.77
2023-03-04T01:00:31.687Z,14.87
2023-03-04T01:03:00.050Z,14.57
2023-03-04T01:05:28.624Z,14.07
2023-03-04T01:07:57.003Z,13.70
2023-03-04T01:10:25.478Z,15.33
2023-03-04T01:12:54.517Z,15.50
2023-03-04T01:15:22.853Z,16.03
2023-03-04T01:17:52.737Z,15.03
2023-03-04T01:20:21.271Z,18.70
2023-03-04T01:22:49.650Z,16.07
2023-03-04T01:25:18.269Z,15.47
2023-03-04T01:27:46.748Z,15.93
2023-03-04T01:30:15.504Z,16.83
2023-03-04T01:32:43.906Z,16.73
2023-03-04T01:35:13.637Z,17.70
2023-03-04T01:37:42.171Z,16.50
2023-03-04T01:40:11.568Z,16.27
2023-03-04T01:42:40.120Z,16.77
2023-03-04T01:45:13.009Z,14.47
2023-03-04T01:47:43.758Z,15.27
2023-03-04T01:50:21.914Z,15.63
2023-03-04T01:52:50.397Z,15.83
2023-03-04T01:55:20.852Z,14.43
2023-03-04T01:57:51.130Z,14.77
2023-03-04T02:00:26.914Z,15.30
2023-03-04T02:02:58.884Z,13.63
2023-03-04T02:05:29.653Z,15.70
2023-03-04T02:07:59.686Z,15.23
2023-03-04T02:10:28.312Z,15.17
2023-03-04T02:12:57.234Z,14.60
2023-03-04T02:15:26.325Z,13.23
2023-03-04T02:17:54.791Z,15.63
2023-03-04T02:20:43.798Z,15.73
2023-03-04T02:23:18.872Z,15.33
2023-03-04T02:25:51.674Z,15.83
2023-03-04T02:28:21.779Z,16.00
2023-03-04T02:30:50.157Z,17.93
2023-03-04T02:33:19.706Z,16.77
2023-03-04T02:35:48.611Z,16.07
2023-03-04T02:38:17.136Z,18.80
2023-03-04T02:40:50.108Z,19.07
2023-03-04T02:43:18.747Z,20.13
2023-03-04T02:45:51.514Z,19.00
2023-03-04T02:48:21.591Z,20.73
2023-03-04T02:50:53.167Z,21.13
2023-03-04T02:53:23.047Z,16.70
2023-03-04T02:55:52.105Z,17.27
2023-03-04T02:58:23.620Z,16.53
2023-03-04T03:00:53.448Z,18.10
2023-03-04T03:03:21.826Z,16.07
2023-03-04T03:05:50.313Z,17.87
2023-03-04T03:08:19.034Z,18.13
2023-03-04T03:10:47.628Z,19.90
2023-03-04T03:13:16.013Z,19.10
2023-03-04T03:15:44.890Z,18.33
2023-03-04T03:18:15.437Z,17.93
2023-03-04T03:20:44.045Z,16.20
2023-03-04T03:23:12.476Z,16.33
2023-03-04T03:25:40.867Z,17.93
2023-03-04T03:28:09.236Z,19.77
2023-03-04T03:30:39.349Z,19.43
2023-03-04T03:33:08.114Z,21.97
2023-03-04T03:35:39.055Z,20.60
2023-03-04T03:38:07.621Z,19.57
2023-03-04T03:40:36.113Z,20.30
2023-03-04T03:43:04.471Z,21.70
2023-03-04T03:45:33.235Z,22.07
2023-03-04T03:48:01.660Z,24.07
2023-03-04T03:50:30.111Z,20.10
2023-03-04T03:53:00.090Z,22.00
2023-03-04T03:55:28.556Z,22.57
2023-03-04T03:57:56.921Z,22.53
2023-03-04T04:00:25.607Z,23.17
2023-03-04T04:02:56.054Z,20.90
2023-03-04T04:05:24.424Z,20.80
2023-03-04T04:07:54.170Z,21.37
2023-03-04T04:10:23.964Z,18.47
2023-03-04T04:12:52.508Z,20.40
2023-03-04T04:15:21.092Z,19.73
2023-03-04T04:17:49.404Z,21.83
2023-03-04T04:20:18.206Z,22.03
2023-03-04T04:22:46.505Z,21.60
2023-03-04T04:25:14.936Z,21.33
2023-03-04T04:27:44.692Z,23.77
2023-03-04T04:30:14.169Z,21.77
2023-03-04T04:32:42.546Z,18.87
2023-03-04T04:35:11.208Z,21.43
2023-03-04T04:37:39.742Z,21.47
2023-03-04T04:40:09.158Z,21.47
2023-03-04T04:42:37.601Z,21.90
2023-03-04T04:45:08.484Z,20.87
2023-03-04T04:47:36.910Z,22.03
2023-03-04T04:50:06.256Z,18.07
2023-03-04T04:52:34.638Z,20.40
2023-03-04T04:55:03.007Z,19.27
2023-03-04T04:57:31.377Z,19.50
2023-03-04T04:59:59.762Z,19.80
2023-03-04T05:02:29.638Z,18.07
2023-03-04T05:04:58.051Z,23.87
2023-03-04T05:07:26.443Z,24.30
2023-03-04T05:09:54.685Z,23.83
2023-03-04T05:12:23.045Z,22.27
2023-03-04T05:14:51.391Z,25.57
2023-03-04T05:17:19.739Z,27.13
2023-03-04T05:19:49.497Z,26.43
2023-03-04T05:22:17.912Z,27.10
2023-03-04T05:24:46.328Z,27.37
2023-03-04T05:27:14.716Z,26.30
2023-03-04T05:29:44.917Z,25.63
2023-03-04T05:32:13.516Z,24.83
2023-03-04T05:34:42.070Z,26.27
2023-03-04T05:37:11.714Z,31.03
2023-03-04T05:39:40.157Z,28.37
2023-03-04T05:42:08.477Z,29.00
2023-03-04T05:44:36.907Z,30.80
2023-03-04T05:47:05.178Z,26.00
2023-03-04T05:49:33.519Z,28.80
2023-03-04T05:52:01.927Z,32.83
2023-03-04T05:54:31.641Z,27.07
2023-03-04T05:57:00.157Z,25.83
2023-03-04T05:59:28.427Z,28.20
2023-03-04T06:01:56.804Z,25.70
2023-03-04T06:04:25.251Z,27.93
2023-03-04T06:06:53.532Z,33.43
2023-03-04T06:09:22.157Z,25.77
2023-03-04T06:11:51.717Z,30.60
2023-03-04T06:14:20.223Z,27.50
2023-03-04T06:16:48.530Z,26.40
2023-03-04T06:19:16.842Z,26.97
2023-03-04T06:21:45.229Z,24.83
2023-03-04T06:24:13.729Z,27.17
2023-03-04T06:26:42.138Z,28.90
2023-03-04T06:29:12.049Z,26.43
2023-03-04T06:31:41.950Z,26.80
2023-03-04T06:34:10.636Z,25.43
2023-03-04T06:36:39.142Z,29.07
2023-03-04T06:39:08.603Z,30.27
2023-03-04T06:41:37.327Z,26.87
2023-03-04T06:44:06.101Z,29.73
2023-03-04T06:46:37.286Z,28.80
2023-03-04T06:49:05.715Z,30.13
2023-03-04T06:51:34.067Z,30.63
2023-03-04T06:54:02.419Z,30.40
2023-03-04T06:56:31.025Z,33.03
2023-03-04T06:58:59.344Z,30.30
2023-03-04T07:01:29.837Z,27.93
2023-03-04T07:03:59.814Z,30.33
2023-03-04T07:06:29.737Z,29.27
2023-03-04T07:08:59.085Z,30.70
2023-03-04T07:11:27.711Z,28.80
2023-03-04T07:13:56.152Z,31.43
2023-03-04T07:16:25.042Z,28.60
2023-03-04T07:18:53.555Z,29.07
2023-03-04T07:21:23.230Z,28.27
2023-03-04T07:23:51.723Z,26.17
2023-03-04T07:26:20.478Z,26.37
2023-03-04T07:28:49.291Z,25.40
2023-03-04T07:31:24.145Z,26.17
2023-03-04T07:33:53.005Z,23.33
2023-03-04T07:36:22.798Z,25.13
2023-03-04T07:38:54.783Z,25.70
2023-03-04T07:41:24.904Z,23.47
2023-03-04T07:43:53.444Z,26.17
2023-03-04T07:46:21.873Z,24.63
2023-03-04T07:48:50.299Z,24.87
2023-03-04T07:51:20.743Z,23.93
2023-03-04T07:53:52.080Z,27.03
2023-03-04T07:56:22.585Z,25.77
2023-03-04T07:58:53.714Z,24.50
2023-03-04T08:01:24.850Z,26.07
2023-03-04T08:03:53.725Z,25.57
2023-03-04T08:06:23.438Z,24.13
2023-03-04T08:08:58.256Z,23.87
2023-03-04T08:11:26.939Z,23.70
2023-03-04T08:13:55.427Z,22.47
2023-03-04T08:16:25.130Z,21.40
2023-03-04T08:18:56.312Z,20.40
2023-03-04T08:21:27.435Z,19.17
2023-03-04T08:23:59.466Z,22.13
2023-03-04T08:26:30.084Z,20.23
2023-03-04T08:28:59.198Z,20.00
2023-03-04T08:31:27.678Z,21.23
2023-03-04T08:33:56.657Z,18.90
2023-03-04T08:36:25.066Z,19.17
2023-03-04T08:38:53.376Z,17.93
2023-03-04T08:41:23.481Z,20.23
2023-03-04T08:43:51.914Z,18.57
2023-03-04T08:46:20.428Z,17.97
2023-03-04T08:48:48.887Z,19.93
2023-03-04T08:51:18.399Z,20.43
2023-03-04T08:53:47.085Z,20.30
2023-03-04T08:56:17.034Z,20.37
2023-03-04T08:58:46.635Z,20.90
2023-03-04T09:01:16.864Z,19.03
2023-03-04T09:03:45.643Z,20.30
2023-03-04T09:06:16.762Z,20.07
2023-03-04T09:08:45.678Z,20.07
2023-03-04T09:11:14.986Z,20.80
2023-03-04T09:13:43.605Z,21.13
2023-03-04T09:16:14.781Z,23.13
2023-03-04T09:18:43.534Z,21.33
2023-03-04T09:21:11.967Z,21.00
2023-03-04T09:23:40.985Z,24.17
2023-03-04T09:26:17.660Z,23.53
2023-03-04T09:28:46.117Z,24.30
2023-03-04T09:31:16.475Z,21.80
2023-03-04T09:33:44.963Z,21.57
2023-03-04T09:36:15.390Z,22.37
2023-03-04T09:38:44.385Z,23.93
2023-03-04T09:41:18.497Z,21.47
2023-03-04T09:43:47.850Z,22.33
2023-03-04T09:46:21.488Z,21.43
2023-03-04T09:48:52.546Z,22.03
2023-03-04T09:51:24.052Z,20.57
2023-03-04T09:54:07.013Z,20.93
2023-03-04T09:56:37.785Z,20.83
2023-03-04T09:59:18.492Z,23.17
2023-03-04T10:01:51.503Z,22.20
2023-03-04T10:04:27.456Z,20.43
2023-03-04T10:06:56.507Z,20.70
2023-03-04T10:09:29.072Z,21.33
2023-03-04T10:12:03.831Z,19.63
2023-03-04T10:14:38.549Z,19.73
2023-03-04T10:17:18.506Z,19.73
2023-03-04T10:20:02.425Z,19.03
2023-03-04T10:22:36.423Z,18.67
2023-03-04T10:25:17.809Z,20.50
2023-03-04T10:27:52.024Z,18.93
2023-03-04T10:30:33.989Z,20.83
2023-03-04T10:33:04.089Z,20.23
2023-03-04T10:35:37.550Z,20.00
2023-03-04T10:38:06.097Z,19.60
2023-03-04T10:40:40.512Z,20.67
2023-03-04T10:43:16.700Z,17.83
2023-03-04T10:45:46.360Z,18.37
2023-03-04T10:48:25.381Z,17.20
2023-03-04T10:50:53.948Z,18.43
2023-03-04T10:53:34.585Z,18.10
2023-03-04T10:56:03.230Z,18.90
2023-03-04T10:58:31.683Z,18.33
2023-03-04T11:01:06.005Z,17.63
2023-03-04T11:03:38.773Z,17.53
2023-03-04T11:06:12.162Z,16.77
2023-03-04T11:08:42.686Z,16.80
2023-03-04T11:11:34.483Z,20.10
2023-03-04T11:14:09.790Z,17.90
2023-03-04T11:16:38.314Z,19.60
2023-03-04T11:19:17.645Z,18.93
2023-03-04T11:21:47.619Z,18.80
2023-03-04T11:24:28.771Z,19.00
2023-03-04T11:27:04.764Z,18.17
2023-03-04T11:29:38.275Z,17.60
2023-03-04T11:32:12.377Z,16.63
2023-03-04T11:34:48.062Z,16.97
2023-03-04T11:37:24.193Z,16.17
2023-03-04T11:39:57.757Z,17.37
2023-03-04T11:42:34.170Z,17.20
2023-03-04T11:45:02.826Z,17.17
2023-03-04T11:47:49.162Z,18.47
2023-03-04T11:50:39.155Z,17.97
2023-03-04T11:53:29.405Z,18.47
2023-03-04T11:56:13.658Z,18.13
2023-03-04T11:59:20.708Z,17.83
2023-03-04T12:01:57.518Z,19.43
2023-03-04T12:04:49.434Z,19.07
2023-03-04T12:07:34.013Z,18.10
2023-03-04T12:10:16.366Z,18.37
2023-03-04T12:13:14.174Z,18.27
2023-03-04T12:15:51.394Z,19.30
2023-03-04T12:18:40.614Z,17.90
2023-03-04T12:21:20.996Z,18.30
2023-03-04T12:24:11.359Z,18.13
2023-03-04T12:26:44.707Z,19.33
2023-03-04T12:29:20.262Z,20.63
2023-03-04T12:31:58.170Z,18.83
2023-03-04T12:34:47.432Z,20.10
2023-03-04T12:37:38.053Z,18.63
2023-03-04T12:40:28.216Z,17.47
2023-03-04T12:43:12.757Z,17.57
2023-03-04T12:45:48.802Z,16.97
2023-03-04T12:48:28.926Z,18.97
2023-03-04T12:51:11.006Z,18.30
2023-03-04T12:53:47.267Z,19.53
2023-03-04T12:56:26.634Z,19.10
2023-03-04T12:58:56.094Z,20.15
2023-03-04T13:01:29.099Z,19.47
2023-03-04T13:04:03.865Z,19.97
2023-03-04T13:06:40.962Z,18.85
2023-03-04T13:09:17.713Z,20.70
2023-03-04T13:11:56.224Z,20.33
2023-03-04T13:14:36.154Z,19.43
2023-03-04T13:17:43.476Z,19.10
2023-03-04T13:20:34.902Z,21.47
2023-03-04T13:23:05.563Z,20.10
2023-03-04T13:25:36.927Z,21.03
2023-03-04T13:28:25.723Z,21.80
2023-03-04T13:31:26.964Z,21.37
2023-03-04T13:34:05.062Z,22.00
2023-03-04T13:36:56.071Z,21.40
2023-03-04T13:39:35.612Z,20.23
2023-03-04T13:42:06.076Z,21.33
2023-03-04T13:45:02.478Z,21.37
2023-03-04T13:47:45.104Z,21.80
2023-03-04T13:50:41.656Z,22.90
2023-03-04T13:53:41.109Z,22.27
2023-03-04T13:56:38.528Z,23.83
2023-03-04T13:59:30.810Z,22.03
2023-03-04T14:02:03.583Z,22.00
2023-03-04T14:04:34.861Z,21.73
2023-03-04T14:07:06.013Z,22.20
2023-03-04T14:09:36.242Z,22.67
2023-03-04T14:12:13.742Z,21.50
2023-03-04T14:14:50.052Z,22.10
2023-03-04T14:17:23.603Z,20.40
2023-03-04T14:19:54.011Z,20.80
2023-03-04T14:22:25.789Z,22.23
2023-03-04T14:24:58.693Z,21.53
2023-03-04T14:27:27.663Z,20.13
2023-03-04T14:29:59.931Z,22.27
2023-03-04T14:32:31.617Z,21.73
2023-03-04T14:35:03.446Z,18.80
2023-03-04T14:37:39.232Z,21.40
2023-03-04T14:40:08.859Z,21.70
2023-03-04T14:42:41.900Z,20.27
2023-03-04T14:45:15.791Z,21.57
2023-03-04T14:47:48.605Z,21.67
2023-03-04T14:50:18.722Z,22.00
2023-03-04T14:52:52.003Z,22.10
2023-03-04T14:55:24.147Z,22.70
2023-03-04T14:57:58.668Z,21.33
2023-03-04T15:00:30.861Z,21.70
2023-03-04T15:03:02.852Z,21.50
2023-03-04T15:05:33.792Z,22.73
2023-03-04T15:08:04.766Z,22.13
2023-03-04T15:10:35.333Z,24.10
2023-03-04T15:13:07.642Z,22.03
2023-03-04T15:15:42.176Z,19.97
2023-03-04T15:18:26.593Z,21.83
2023-03-04T15:21:00.969Z,22.97
2023-03-04T15:23:31.189Z,22.20
2023-03-04T15:26:02.113Z,20.30
2023-03-04T15:28:35.816Z,21.50
2023-03-04T15:31:04.746Z,21.23
2023-03-04T15:33:35.045Z,23.13
2023-03-04T15:36:04.771Z,21.30
2023-03-04T15:38:33.373Z,22.40
2023-03-04T15:41:02.107Z,22.13
2023-03-04T15:43:30.454Z,23.20
2023-03-04T15:45:58.870Z,23.63
2023-03-04T15:48:27.278Z,23.33
2023-03-04T15:51:00.383Z,24.20
2023-03-04T15:53:33.957Z,22.73
2023-03-04T15:56:03.808Z,22.73
2023-03-04T15:58:35.138Z,24.60
2023-03-04T16:01:04.036Z,23.30
2023-03-04T16:03:32.572Z,25.27
2023-03-04T16:06:02.410Z,25.30
2023-03-04T16:08:30.922Z,23.73
2023-03-04T16:10:59.444Z,25.67
2023-03-04T16:13:27.913Z,26.20
2023-03-04T16:15:56.374Z,23.33
2023-03-04T16:18:24.999Z,25.30
2023-03-04T16:20:53.753Z,22.43
2023-03-04T16:23:25.640Z,22.13
2023-03-04T16:25:56.970Z,22.50
2023-03-04T16:28:25.538Z,20.10
2023-03-04T16:30:54.049Z,23.50
2023-03-04T16:33:22.504Z,21.90
2023-03-04T16:35:52.058Z,21.80
2023-03-04T16:38:28.210Z,22.70
2023-03-04T16:40:58.324Z,21.47
2023-03-04T16:43:26.969Z,21.30
2023-03-04T16:45:55.702Z,19.37
2023-03-04T16:48:24.322Z,18.80
2023-03-04T16:50:52.732Z,20.20
2023-03-04T16:53:32.470Z,18.77
2023-03-04T16:56:05.818Z,21.43
2023-03-04T16:58:34.279Z,20.50
2023-03-04T17:01:03.191Z,21.37
2023-03-04T17:03:31.609Z,22.20
2023-03-04T17:06:00.216Z,20.07
2023-03-04T17:08:29.892Z,19.27
2023-03-04T17:10:58.367Z,19.00
2023-03-04T17:13:26.769Z,20.13
2023-03-04T17:15:55.277Z,19.90
2023-03-04T17:18:23.700Z,17.10
2023-03-04T17:20:51.982Z,18.30
2023-03-04T17:23:20.270Z,19.67
2023-03-04T17:25:56.701Z,17.70
2023-03-04T17:28:25.188Z,15.50
2023-03-04T17:30:53.571Z,15.63
2023-03-04T17:33:22.733Z,16.30
2023-03-04T17:35:51.369Z,16.07
2023-03-04T17:38:19.776Z,15.90
2023-03-04T17:40:48.154Z,14.63
2023-03-04T17:43:17.853Z,15.20
2023-03-04T17:45:46.272Z,17.03
2023-03-04T17:48:15.361Z,16.13
2023-03-04T17:50:50.764Z,16.30
2023-03-04T17:53:19.875Z,16.07
2023-03-04T17:55:51.754Z,16.87
2023-03-04T17:58:21.637Z,15.00
2023-03-04T18:00:52.951Z,14.93
2023-03-04T18:03:21.532Z,15.10
2023-03-04T18:05:49.815Z,15.07
2023-03-04T18:08:18.170Z,14.23
2023-03-04T18:10:46.609Z,13.67
2023-03-04T18:13:14.922Z,14.43
2023-03-04T18:15:44.685Z,13.43
2023-03-04T18:18:13.373Z,13.53
2023-03-04T18:20:41.927Z,13.53
2023-03-04T18:23:10.454Z,14.57
2023-03-04T18:25:38.877Z,13.67
2023-03-04T18:28:08.884Z,12.70
2023-03-04T18:30:37.309Z,13.97
2023-03-04T18:33:07.112Z,13.20
2023-03-04T18:35:35.464Z,12.20
2023-03-04T18:38:03.922Z,12.13
2023-03-04T18:40:32.395Z,13.50
2023-03-04T18:43:01.080Z,10.07
2023-03-04T18:45:29.727Z,11.43
2023-03-04T18:48:00.397Z,12.13
2023-03-04T18:50:30.070Z,12.60
2023-03-04T18:52:59.698Z,12.30
2023-03-04T18:55:28.448Z,13.07
2023-03-04T18:58:01.566Z,12.37
2023-03-04T19:00:30.629Z,13.53
2023-03-04T19:03:02.214Z,13.10
2023-03-04T19:05:33.761Z,13.70
2023-03-04T19:08:02.207Z,12.80
2023-03-04T19:10:30.885Z,13.13
2023-03-04T19:12:59.711Z,13.50
2023-03-04T19:15:28.478Z,12.70
2023-03-04T19:17:56.926Z,13.07
2023-03-04T19:20:25.367Z,13.00
2023-03-04T19:22:55.122Z,13.47
2023-03-04T19:25:23.617Z,15.43
2023-03-04T19:27:55.342Z,15.03
2023-03-04T19:30:24.152Z,13.60
2023-03-04T19:32:52.508Z,13.33
2023-03-04T19:35:20.922Z,13.97
2023-03-04T19:37:49.398Z,13.77
2023-03-04T19:40:19.313Z,13.87
2023-03-04T19:42:47.710Z,13.17
2023-03-04T19:45:16.201Z,14.67
2023-03-04T19:47:44.555Z,14.03
2023-03-04T19:50:14.241Z,13.00
2023-03-04T19:52:43.424Z,13.60
2023-03-04T19:55:13.763Z,13.33
2023-03-04T19:57:43.647Z,13.33
2023-03-04T20:00:13.903Z,12.73
2023-03-04T20:02:43.912Z,12.70
2023-03-04T20:05:12.541Z,12.87
2023-03-04T20:07:41.071Z,11.67
2023-03-04T20:10:10.762Z,11.47
2023-03-04T20:12:41.175Z,10.77
2023-03-04T20:15:11.573Z,11.50
2023-03-04T20:17:40.103Z,11.07
2023-03-04T20:20:10.782Z,11.83
2023-03-04T20:22:39.300Z,10.17
2023-03-04T20:25:08.086Z,11.50
2023-03-04T20:27:36.470Z,11.33
2023-03-04T20:30:05.216Z,11.10
2023-03-04T20:32:34.998Z,11.47
2023-03-04T20:35:03.524Z,10.50
2023-03-04T20:37:32.230Z,11.30
2023-03-04T20:40:00.579Z,10.10
2023-03-04T20:42:28.951Z,11.93
2023-03-04T20:44:57.270Z,12.70
2023-03-04T20:47:25.657Z,12.33
2023-03-04T20:49:55.450Z,12.13
2023-03-04T20:52:24.258Z,12.97
2023-03-04T20:54:52.692Z,12.87
2023-03-04T20:57:21.446Z,13.00
2023-03-04T20:59:49.835Z,13.17
2023-03-04T21:02:19.801Z,12.83
2023-03-04T21:04:48.261Z,12.13
2023-03-04T21:07:17.994Z,12.37
2023-03-04T21:09:46.442Z,13.37
2023-03-04T21:12:14.950Z,13.10
2023-03-04T21:14:45.242Z,12.47
2023-03-04T21:17:14.088Z,12.67
2023-03-04T21:19:44.431Z,14.47
2023-03-04T21:22:16.144Z,14.67
2023-03-04T21:24:47.924Z,14.80
2023-03-04T21:27:16.982Z,13.90
2023-03-04T21:29:45.970Z,14.23
2023-03-04T21:32:24.142Z,14.20
2023-03-04T21:34:54.230Z,14.60
2023-03-04T21:37:23.845Z,13.63
2023-03-04T21:39:54.330Z,14.50
2023-03-04T21:42:22.925Z,14.83
2023-03-04T21:44:52.071Z,13.30
2023-03-04T21:47:21.468Z,13.10
2023-03-04T21:49:49.898Z,13.63
2023-03-04T21:52:19.414Z,12.73
2023-03-04T21:54:48.847Z,13.80
2023-03-04T21:57:19.128Z,13.23
2023-03-04T21:59:47.591Z,12.70
2023-03-04T22:02:17.394Z,14.43
2023-03-04T22:04:45.894Z,13.57
2023-03-04T22:07:14.857Z,13.37
2023-03-04T22:09:43.222Z,14.93
2023-03-04T22:12:11.669Z,16.97
2023-03-04T22:14:41.412Z,17.03
2023-03-04T22:17:09.933Z,17.60
2023-03-04T22:19:38.447Z,15.10
2023-03-04T22:22:07.374Z,15.33
2023-03-04T22:24:35.793Z,15.33
2023-03-04T22:27:04.201Z,16.30
2023-03-04T22:29:32.700Z,15.70
2023-03-04T22:32:02.530Z,14.30
2023-03-04T22:34:30.996Z,16.20
2023-03-04T22:36:59.388Z,14.63
2023-03-04T22:39:28.158Z,13.67
2023-03-04T22:41:56.612Z,13.77
2023-03-04T22:44:25.106Z,13.53
2023-03-04T22:46:53.528Z,13.97
2023-03-04T22:49:23.205Z,14.40
2023-03-04T22:51:51.453Z,14.63
2023-03-04T22:54:20.247Z,16.83
2023-03-04T22:56:48.591Z,18.70
2023-03-04T22:59:16.872Z,18.73
2023-03-04T23:01:45.281Z,17.00
2023-03-04T23:04:13.656Z,18.37
2023-03-04T23:06:43.438Z,18.73
2023-03-04T23:09:11.878Z,16.43
2023-03-04T23:11:40.392Z,17.70
2023-03-04T23:14:11.639Z,19.77
2023-03-04T23:16:43.302Z,17.00
2023-03-04T23:19:14.309Z,17.63
2023-03-04T23:21:44.718Z,18.07
2023-03-04T23:24:14.331Z,16.53
2023-03-04T23:26:44.430Z,15.10
2023-03-04T23:29:16.230Z,14.17
2023-03-04T23:31:45.452Z,15.47
2023-03-04T23:34:14.141Z,15.83
2023-03-04T23:36:44.051Z,14.80
2023-03-04T23:39:13.418Z,14.10
2023-03-04T23:41:41.844Z,15.00
2023-03-04T23:44:11.541Z,16.47
2023-03-04T23:46:40.125Z,14.80
2023-03-04T23:49:10.172Z,15.67
2023-03-04T23:51:40.893Z,14.90
2023-03-04T23:54:10.860Z,15.37
2023-03-04T23:56:39.509Z,15.80
2023-03-04T23:59:08.776Z,16.47
